Aviation Digital Data Service (ADDS)

Output produced by TAFs form (1559 UTC 25 April 2015)
found at http://www.aviationweather.gov/adds/tafs/
 
KABE 251305Z 2513/2612 32006KT P6SM BKN200 
     FM251700 29008G15KT P6SM SCT200 
     FM260000 00000KT P6SM SCT200